Flight Track Log - Related Links

Times and Time Zones

All times are in EDT time to prevent confusion due to time zone crossing. See the UAL252 flight status page for this flight to view local times or setup timezone preferences in your user account.

Time Position Orientation Groundspeed Altitude Reporting Facility
EDT Latitude Longitude Course Direction KTS MPH feet Rate Location/Type
Sun 09:36:09 AM 45.5844 -122.5708 196° South 161 185 700  Level Seattle Center
Sun 09:37:32 AM 45.5686 -122.4711 103° East 221 254 4,000 2,769 Climbing Seattle Center
Sun 09:38:32 AM 45.5211 -122.4147 140° Southeast 253 291 7,300 3,273 Climbing Seattle Center
Sun 09:39:00 AM 45.1343 -122.7830 193° South  Level FlightAware Approximate
Sun 09:39:33 AM 45.4661 -122.5014 228° Southwest 304 350 10,600  Level Seattle Center
Sun 09:40:00 AM 45.0215 -122.8309 199° South  Level FlightAware Approximate
Sun 09:40:33 AM 45.4306 -122.6367 250° West 357 411 12,900  Level Seattle Center
Sun 09:41:00 AM 44.9095 -122.8829 196° South  Level FlightAware Approximate
Sun 09:41:34 AM 45.3428 -122.7158 212° Southwest 378 435 15,300  Level Seattle Center
Sun 09:42:34 AM 45.2367 -122.7569 195° South 387 445 17,600 2,000 Climbing Seattle Center
Sun 09:43:34 AM 45.1225 -122.8050 197° South 412 474 19,300 2,083 Climbing Seattle Center
Sun 09:44:35 AM 44.9994 -122.8575 197° South 446 513 21,800 2,083 Climbing Seattle Center
Sun 09:45:35 AM 44.8758 -122.9103 197° South 458 527 23,500 1,736 Climbing Seattle Center
Sun 09:46:36 AM 44.7483 -122.9625 196° South 466 536 25,300 1,785 Climbing Seattle Center
Sun 09:47:36 AM 44.6206 -123.0419 204° Southwest 495 570 27,100 1,537 Climbing Seattle Center
Sun 09:48:37 AM 44.4933 -123.1444 210° Southwest 519 597 28,400 1,339 Climbing Seattle Center
Sun 09:49:37 AM 44.3614 -123.2464 209° Southwest 532 612 29,800 1,600 Climbing Seattle Center
Sun 09:50:37 AM 44.2272 -123.3486 209° Southwest 545 627 31,600 1,587 Climbing Seattle Center
Sun 09:51:38 AM 44.0947 -123.4533 210° Southwest 547 629 33,000 1,636 Climbing Seattle Center
Sun 09:52:38 AM 43.9517 -123.5203 199° South 521 600 34,900 1,339 Climbing Seattle Center
Sun 09:53:39 AM 43.8142 -123.5267 182° South 497 572 35,700 992 Climbing Seattle Center
Sun 09:54:39 AM 43.6803 -123.5119 175° South 484 557 36,900 645 Climbing Seattle Center
Sun 09:55:40 AM 43.5444 -123.5058 178° South 489 563 37,000 50 Climbing Seattle Center
Sun 09:56:40 AM 43.4100 -123.5006 178° South 484 557 37,000  Level Seattle Center
Sun 09:57:41 AM 43.2756 -123.4925 178° South 485 558 37,000  Level Seattle Center
Sun 09:58:41 AM 43.1419 -123.4853 178° South 481 554 37,000  Level Seattle Center
Sun 09:59:41 AM 43.0119 -123.4794 178° South 469 540 37,000  Level Seattle Center
Sun 10:00:42 AM 42.8828 -123.4711 177° South 465 535 37,000  Level Seattle Center
Sun 10:01:42 AM 42.7531 -123.4633 177° South 467 537 37,000  Level Seattle Center
Sun 10:02:43 AM 42.6294 -123.4572 178° South 466 536 37,000  Level Seattle Center
Sun 10:03:43 AM 42.4997 -123.4511 178° South 468 539 37,000  Level Seattle Center
Sun 10:04:44 AM 42.3689 -123.4433 177° South 470 541 37,000  Level Seattle Center
Sun 10:05:44 AM 42.2350 -123.4364 178° South 479 551 37,000  Level Seattle Center
Sun 10:06:45 AM 42.1006 -123.4292 178° South 483 556 37,000  Level Seattle Center
Sun 10:07:45 AM 41.9419 -123.4208 178° South 479 551 37,000  Level Seattle Center
Sun 10:08:46 AM 41.8103 -123.4142 178° South 476 548 37,000  Level Seattle Center
Sun 10:09:46 AM 41.6789 -123.4081 178° South 475 547 37,000  Level Seattle Center
Sun 10:10:47 AM 41.5472 -123.3975 177° South 474 545 37,000  Level Seattle Center
Sun 10:11:47 AM 41.4186 -123.3806 174° South 469 540 37,000  Level Seattle Center
Sun 10:12:48 AM 41.2936 -123.3619 174° South 464 534 37,000  Level Seattle Center
Sun 10:13:48 AM 41.1650 -123.3406 173° South 463 533 37,000  Level Seattle Center
Sun 10:14:49 AM 41.0353 -123.3189 173° South 467 537 37,000  Level Seattle Center
Sun 10:15:50 AM 40.9058 -123.2983 173° South 468 539 37,000  Level Seattle Center
Sun 10:16:45 AM 40.7756 -123.2772 173° South 470 541 37,000  Level Oakland Center
Sun 10:17:46 AM 40.6453 -123.2581 174° South 470 541 37,000  Level Oakland Center
Sun 10:18:46 AM 40.5194 -123.2386 173° South 463 533 37,000  Level Oakland Center
Sun 10:19:47 AM 40.3939 -123.2183 173° South 458 527 37,000  Level Oakland Center
Sun 10:20:48 AM 40.2683 -123.1972 173° South 457 526 37,000  Level Oakland Center
Sun 10:21:48 AM 40.1428 -123.1778 173° South 456 525 37,000  Level Oakland Center
Sun 10:22:49 AM 40.0153 -123.1592 174° South 461 531 37,000  Level Oakland Center
Sun 10:23:49 AM 39.8903 -123.1414 174° South 457 526 37,000 -545 Level Oakland Center
Sun 10:24:50 AM 39.7653 -123.1214 173° South 456 525 35,900 -1,721 Descending Oakland Center
Sun 10:25:51 AM 39.6369 -123.1003 173° South 464 534 33,500 -2,529 Descending Oakland Center
Sun 10:26:51 AM 39.5144 -123.0808 173° South 449 517 30,800 -2,529 Descending Oakland Center
Sun 10:27:52 AM 39.3778 -123.0583 173° South 443 510 28,400 -1,884 Descending Oakland Center
Sun 10:28:52 AM 39.2614 -123.0397 173° South 426 490 27,000 -694 Descending Oakland Center
Sun 10:29:53 AM 39.1442 -123.0228 174° South 423 487 27,000  Level Oakland Center
Sun 10:30:54 AM 39.0317 -123.0044 173° South 412 474 27,000 -397 Level Oakland Center
Sun 10:31:54 AM 38.9158 -122.9900 174° South 417 480 26,200 -1,636 Descending Oakland Center
Sun 10:32:55 AM 38.8022 -122.9708 173° South 414 476 23,700 -3,000 Descending Oakland Center
Sun 10:33:56 AM 38.6894 -122.9544 174° South 412 474 20,100 -3,322 Descending Oakland Center
Sun 10:34:56 AM 38.5747 -122.9389 174° South 411 473 17,000 -2,727 Descending Oakland Center
Sun 10:35:57 AM 38.4642 -122.9231 174° South 399 459 14,600 -2,459 Descending Oakland Center
Sun 10:36:58 AM 38.3600 -122.9083 174° South 379 436 12,000 -1,820 Descending Oakland Center
Sun 10:37:59 AM 38.2611 -122.8942 174° South 361 415 10,900 -1,041 Descending Oakland Center
Sun 10:38:59 AM 38.1647 -122.8806 174° South 310 357 9,900 -942 Descending Oakland Center
Sun 10:40:00 AM 38.0872 -122.8703 174° South 290 334 9,000 -443 Descending Oakland Center
Sun 10:41:01 AM 38.0139 -122.8403 162° South 283 326 9,000  Level Oakland Center
Sun 10:42:01 AM 37.9419 -122.8100 162° South 279 321 9,000 -347 Level Oakland Center
Sun 10:43:02 AM 37.8722 -122.7806 162° South 271 312 8,300 -836 Descending Oakland Center
Sun 10:44:03 AM 37.8111 -122.7378 151° Southeast 264 304 7,300 -836 Descending Oakland Center
Sun 10:45:04 AM 37.8222 -122.6539 80° East 250 288 6,600 -825 Descending Oakland Center
Sun 10:45:23 AM 37.8333 -122.6167 69° East 241 277 6,200 -684 Descending Northern Cal TRACON
Sun 10:46:23 AM 37.8500 -122.5333 76° East 232 267 5,700 -842 Descending Northern Cal TRACON
Sun 10:47:17 AM 37.8333 -122.4667 108° East 217 250 4,600 -1,263 Descending Northern Cal TRACON
Sun 10:48:17 AM 37.8000 -122.4000 122° Southeast 214 246 3,300 -1,200 Descending Northern Cal TRACON
Sun 10:49:07 AM 37.7803 -122.3522 118° Southeast 208 239 2,400 -703 Descending Oakland Center
Sun 10:50:08 AM 37.7361 -122.3164 147° Southeast 201 231 2,000 -496 Descending Oakland Center
Sun 10:51:08 AM 37.6825 -122.3333 194° South 200 230 1,400 -694 Descending Oakland Center
Sun 10:52:09 AM 37.6406 -122.3600 207° Southwest 182 209 600 -787 Descending Oakland Center

Login

Don't have an account? Register now (free) for customized features, flight alerts, and more!